createdAt,value
2022-10-19T00:01:37.204Z,16.30
2022-10-19T00:04:40.155Z,15.25
2022-10-19T00:07:43.301Z,15.55
2022-10-19T00:10:46.144Z,12.07
2022-10-19T00:13:49.142Z,9.65
2022-10-19T00:16:53.633Z,9.23
2022-10-19T00:19:57.149Z,11.27
2022-10-19T00:23:01.237Z,13.63
2022-10-19T00:26:05.547Z,10.27
2022-10-19T00:29:09.746Z,9.88
2022-10-19T00:32:13.712Z,9.87
2022-10-19T00:35:16.947Z,7.55
2022-10-19T00:38:22.561Z,7.18
2022-10-19T00:41:29.197Z,6.53
2022-10-19T00:44:32.637Z,6.30
2022-10-19T00:47:36.120Z,6.77
2022-10-19T00:50:40.854Z,6.90
2022-10-19T00:53:44.604Z,8.50
2022-10-19T00:56:51.350Z,7.70
2022-10-19T00:59:55.686Z,8.57
2022-10-19T01:02:59.906Z,10.23
2022-10-19T01:06:04.137Z,9.02
2022-10-19T01:09:09.168Z,12.35
2022-10-19T01:12:37.258Z,11.07
2022-10-19T01:15:59.987Z,18.95
2022-10-19T01:19:40.620Z,9.63
2022-10-19T01:22:55.346Z,9.55
2022-10-19T01:26:09.608Z,11.38
2022-10-19T01:29:23.627Z,10.10
2022-10-19T01:32:59.495Z,15.07
2022-10-19T01:36:09.893Z,14.17
2022-10-19T01:39:29.214Z,8.05
2022-10-19T01:42:37.858Z,12.02
2022-10-19T01:45:48.407Z,13.15
2022-10-19T01:48:59.302Z,6.90
2022-10-19T01:52:09.938Z,9.67
2022-10-19T01:55:15.539Z,10.98
2022-10-19T01:58:25.819Z,12.10
2022-10-19T02:01:32.676Z,8.98
2022-10-19T02:04:37.409Z,10.85
2022-10-19T02:07:45.147Z,5.50
2022-10-19T02:10:49.150Z,4.50
2022-10-19T02:14:03.880Z,4.43
2022-10-19T02:17:11.938Z,5.82
2022-10-19T02:20:17.018Z,9.00
2022-10-19T02:23:22.905Z,5.67
2022-10-19T02:26:26.134Z,5.40
2022-10-19T02:29:29.763Z,5.40
2022-10-19T02:32:33.663Z,4.65
2022-10-19T02:35:37.308Z,6.22
2022-10-19T02:38:42.347Z,4.27
2022-10-19T02:42:07.796Z,6.03
2022-10-19T02:45:18.176Z,4.00
2022-10-19T02:48:26.374Z,4.38
2022-10-19T02:51:34.300Z,3.88
2022-10-19T02:54:40.132Z,4.40
2022-10-19T02:57:43.125Z,3.90
2022-10-19T03:00:45.964Z,3.10
2022-10-19T03:03:49.087Z,2.63
2022-10-19T03:06:52.238Z,4.05
2022-10-19T03:09:55.507Z,2.90
2022-10-19T03:12:59.505Z,4.38
2022-10-19T03:16:10.948Z,2.42
2022-10-19T03:19:13.907Z,2.45
2022-10-19T03:22:16.765Z,3.53
2022-10-19T03:25:20.076Z,4.90
2022-10-19T03:28:22.876Z,2.38
2022-10-19T03:31:27.933Z,5.57
2022-10-19T03:34:31.384Z,4.78
2022-10-19T03:37:35.376Z,3.55
2022-10-19T03:40:39.312Z,1.63
2022-10-19T03:43:42.725Z,1.73
2022-10-19T03:46:46.184Z,3.03
2022-10-19T03:49:50.786Z,3.10
2022-10-19T03:52:55.547Z,3.45
2022-10-19T03:56:04.511Z,2.10
2022-10-19T03:59:07.828Z,1.45
2022-10-19T04:02:11.964Z,1.50
2022-10-19T04:05:15.692Z,1.90
2022-10-19T04:08:19.697Z,1.67
2022-10-19T04:11:26.233Z,1.53
2022-10-19T04:14:33.251Z,1.92
2022-10-19T04:17:43.805Z,1.95
2022-10-19T04:20:48.391Z,1.60
2022-10-19T04:24:01.990Z,1.70
2022-10-19T04:27:05.254Z,2.67
2022-10-19T04:30:09.202Z,1.65
2022-10-19T04:33:12.804Z,1.70
2022-10-19T04:36:16.339Z,1.70
2022-10-19T04:39:19.944Z,2.22
2022-10-19T04:42:23.472Z,1.80
2022-10-19T04:45:27.286Z,1.60
2022-10-19T04:48:30.045Z,1.63
2022-10-19T04:51:34.086Z,1.30
2022-10-19T04:54:37.639Z,1.67
2022-10-19T04:57:41.742Z,1.30
2022-10-19T05:00:44.735Z,1.88
2022-10-19T05:03:48.484Z,1.70
2022-10-19T05:06:51.729Z,2.17
2022-10-19T05:09:54.583Z,2.20
2022-10-19T05:12:58.267Z,1.80
2022-10-19T05:16:03.453Z,2.00
2022-10-19T05:19:07.110Z,1.85
2022-10-19T05:22:10.944Z,1.90
2022-10-19T05:25:14.553Z,2.65
2022-10-19T05:28:18.148Z,4.33
2022-10-19T05:31:21.675Z,1.85
2022-10-19T05:34:24.908Z,2.25
2022-10-19T05:37:28.421Z,1.27
2022-10-19T05:40:31.620Z,1.92
2022-10-19T05:43:34.823Z,2.57
2022-10-19T05:46:37.674Z,2.53
2022-10-19T05:49:40.608Z,1.60
2022-10-19T05:52:44.238Z,1.48
2022-10-19T05:55:47.227Z,1.45
2022-10-19T05:58:51.651Z,1.30
2022-10-19T06:01:55.810Z,1.30
2022-10-19T06:04:59.490Z,1.30
2022-10-19T06:08:03.098Z,1.20
2022-10-19T06:11:12.425Z,2.10
2022-10-19T06:14:16.951Z,2.47
2022-10-19T06:17:19.922Z,1.50
2022-10-19T06:20:23.696Z,2.00
2022-10-19T06:23:26.593Z,1.90
2022-10-19T06:26:30.892Z,2.70
2022-10-19T06:29:33.740Z,2.10
2022-10-19T06:32:37.228Z,1.73
2022-10-19T06:35:42.804Z,1.70
2022-10-19T06:38:46.694Z,2.30
2022-10-19T06:41:49.563Z,2.10
2022-10-19T06:44:54.680Z,2.93
2022-10-19T06:47:57.587Z,1.50
2022-10-19T06:51:02.276Z,1.60
2022-10-19T06:54:06.078Z,1.40
2022-10-19T06:57:09.020Z,1.23
2022-10-19T07:00:13.249Z,1.90
2022-10-19T07:03:16.547Z,2.00
2022-10-19T07:06:19.848Z,1.67
2022-10-19T07:09:23.529Z,1.70
2022-10-19T07:12:26.493Z,1.70
2022-10-19T07:15:30.195Z,2.17
2022-10-19T07:18:34.488Z,2.28
2022-10-19T07:21:42.098Z,2.33
2022-10-19T07:24:46.167Z,1.70
2022-10-19T07:27:50.076Z,1.80
2022-10-19T07:30:53.014Z,1.60
2022-10-19T07:34:02.049Z,1.80
2022-10-19T07:37:05.654Z,1.55
2022-10-19T07:40:09.703Z,1.65
2022-10-19T07:43:12.631Z,2.35
2022-10-19T07:46:21.058Z,1.53
2022-10-19T07:49:24.022Z,1.67
2022-10-19T07:52:29.910Z,1.50
2022-10-19T07:55:35.862Z,1.70
2022-10-19T07:58:39.666Z,1.85
2022-10-19T08:01:43.640Z,1.60
2022-10-19T08:05:00.383Z,2.22
2022-10-19T08:08:06.724Z,2.15
2022-10-19T08:11:20.834Z,2.10
2022-10-19T08:14:24.483Z,2.67
2022-10-19T08:17:28.469Z,3.93
2022-10-19T08:20:32.122Z,3.80
2022-10-19T08:23:36.094Z,3.35
2022-10-19T08:26:40.613Z,3.28
2022-10-19T08:29:44.376Z,5.30
2022-10-19T08:32:47.998Z,3.90
2022-10-19T08:35:52.121Z,3.10
2022-10-19T08:38:55.631Z,2.45
2022-10-19T08:42:07.782Z,2.78
2022-10-19T08:45:32.433Z,3.35
2022-10-19T08:48:39.006Z,5.07
2022-10-19T08:51:45.445Z,3.60
2022-10-19T08:54:55.025Z,3.30
2022-10-19T08:57:58.466Z,3.65
2022-10-19T09:01:14.768Z,4.00
2022-10-19T09:04:30.154Z,3.97
2022-10-19T09:07:46.388Z,4.78
2022-10-19T09:10:52.706Z,4.65
2022-10-19T09:14:11.431Z,7.53
2022-10-19T09:17:17.103Z,7.03
2022-10-19T09:20:32.927Z,7.80
2022-10-19T09:23:48.204Z,8.35
2022-10-19T09:26:57.942Z,7.78
2022-10-19T09:30:06.661Z,8.82
2022-10-19T09:33:19.202Z,8.90
2022-10-19T09:36:33.227Z,8.73
2022-10-19T09:39:51.067Z,8.65
2022-10-19T09:42:58.828Z,12.48
2022-10-19T09:46:19.482Z,15.80
2022-10-19T09:49:47.880Z,16.30
2022-10-19T09:53:04.980Z,16.17
2022-10-19T09:56:09.751Z,13.98
2022-10-19T09:59:24.232Z,13.13
2022-10-19T10:02:34.684Z,17.17
2022-10-19T10:05:42.423Z,14.75
2022-10-19T10:08:53.126Z,11.50
2022-10-19T10:12:00.410Z,12.32
2022-10-19T10:15:07.472Z,13.30
2022-10-19T10:18:17.110Z,13.35
2022-10-19T10:21:25.976Z,15.07
2022-10-19T10:24:32.080Z,15.47
2022-10-19T10:27:38.826Z,16.70
2022-10-19T10:30:43.028Z,18.90
2022-10-19T10:33:55.359Z,18.50
2022-10-19T10:36:59.747Z,17.30
2022-10-19T10:40:05.182Z,16.57
2022-10-19T10:43:16.774Z,13.88
2022-10-19T10:46:28.144Z,15.18
2022-10-19T10:49:37.788Z,13.38
2022-10-19T10:52:42.008Z,15.10
2022-10-19T10:55:57.742Z,14.50
2022-10-19T10:59:10.898Z,15.75
2022-10-19T11:02:39.409Z,17.67
2022-10-19T11:05:47.522Z,26.60
2022-10-19T11:09:18.503Z,39.53
2022-10-19T11:12:35.169Z,31.73
2022-10-19T11:15:52.302Z,31.42
2022-10-19T11:19:23.383Z,33.83
2022-10-19T11:22:33.177Z,28.92
2022-10-19T11:26:15.239Z,30.38
2022-10-19T11:29:36.645Z,27.77
2022-10-19T11:32:55.151Z,21.02
2022-10-19T11:36:03.086Z,18.83
2022-10-19T11:39:30.984Z,19.58
2022-10-19T11:42:59.140Z,20.08
2022-10-19T11:46:13.577Z,18.57
2022-10-19T11:49:42.861Z,20.17
2022-10-19T11:53:10.602Z,44.33
2022-10-19T11:56:44.848Z,49.28
2022-10-19T12:00:14.973Z,165.50
2022-10-19T12:03:36.981Z,74.43
2022-10-19T12:07:07.480Z,42.17
2022-10-19T12:10:41.432Z,26.83
2022-10-19T12:13:53.501Z,27.60
2022-10-19T12:17:07.475Z,29.67
2022-10-19T12:20:43.449Z,34.00
2022-10-19T12:23:48.839Z,37.15
2022-10-19T12:26:54.779Z,32.97
2022-10-19T12:30:06.046Z,32.45
2022-10-19T12:33:43.019Z,29.75
2022-10-19T12:37:21.292Z,32.30
2022-10-19T12:41:05.724Z,33.55
2022-10-19T12:44:17.765Z,30.17
2022-10-19T12:47:23.979Z,30.55
2022-10-19T12:50:49.846Z,34.75
2022-10-19T12:54:09.184Z,29.43
2022-10-19T12:57:29.314Z,31.52
2022-10-19T13:00:38.254Z,28.17
2022-10-19T13:03:45.341Z,29.58
2022-10-19T13:06:59.377Z,26.33
2022-10-19T13:10:07.713Z,28.90
2022-10-19T13:14:06.887Z,29.00
2022-10-19T13:17:10.383Z,25.90
2022-10-19T13:20:16.117Z,23.80
2022-10-19T13:23:19.728Z,25.35
2022-10-19T13:26:34.896Z,30.13
2022-10-19T13:29:41.351Z,28.90
2022-10-19T13:32:46.089Z,30.85
2022-10-19T13:35:50.126Z,45.63
2022-10-19T13:38:59.784Z,46.13
2022-10-19T13:42:03.839Z,44.60
2022-10-19T13:45:07.677Z,38.65
2022-10-19T13:48:25.454Z,40.28
2022-10-19T13:51:53.606Z,40.60
2022-10-19T13:55:22.105Z,48.20
2022-10-19T13:58:34.465Z,41.97
2022-10-19T14:02:17.364Z,39.58
2022-10-19T14:05:54.222Z,32.45
2022-10-19T14:09:19.151Z,32.60
2022-10-19T14:12:25.794Z,33.35
2022-10-19T14:15:34.368Z,29.63
2022-10-19T14:18:38.256Z,27.13
2022-10-19T14:21:41.973Z,25.10
2022-10-19T14:24:44.964Z,23.77
2022-10-19T14:27:51.246Z,24.27
2022-10-19T14:31:03.631Z,20.30
2022-10-19T14:34:10.320Z,20.08
2022-10-19T14:37:19.699Z,20.58
2022-10-19T14:40:28.385Z,22.27
2022-10-19T14:43:33.622Z,20.40
2022-10-19T14:46:36.917Z,20.27
2022-10-19T14:49:39.713Z,19.33
2022-10-19T14:52:43.130Z,20.02
2022-10-19T14:55:48.572Z,19.58
2022-10-19T14:59:08.777Z,35.70
2022-10-19T15:02:39.296Z,28.73
2022-10-19T15:05:48.834Z,25.80
2022-10-19T15:09:02.876Z,25.42
2022-10-19T15:12:34.822Z,21.90
2022-10-19T15:15:42.700Z,21.38
2022-10-19T15:18:49.762Z,33.80
2022-10-19T15:22:17.740Z,32.67
2022-10-19T15:25:38.023Z,24.38
2022-10-19T15:28:41.930Z,23.45
2022-10-19T15:31:45.521Z,18.20
2022-10-19T15:34:49.280Z,15.80
2022-10-19T15:38:10.885Z,15.70
2022-10-19T15:41:26.492Z,13.15
2022-10-19T15:44:45.153Z,14.93
2022-10-19T15:48:11.205Z,16.10
2022-10-19T15:51:43.869Z,15.67
2022-10-19T15:54:52.103Z,16.35
2022-10-19T15:58:02.238Z,15.23
2022-10-19T16:01:16.314Z,16.25
2022-10-19T16:04:19.931Z,15.65
2022-10-19T16:07:29.807Z,18.63
2022-10-19T16:10:32.663Z,23.85
2022-10-19T16:13:35.504Z,30.73
2022-10-19T16:16:38.897Z,31.70
2022-10-19T16:19:42.250Z,28.05
2022-10-19T16:22:46.311Z,21.97
2022-10-19T16:25:49.464Z,17.67
2022-10-19T16:28:54.792Z,14.68
2022-10-19T16:31:58.149Z,19.90
2022-10-19T16:35:01.110Z,17.23
2022-10-19T16:38:05.073Z,16.90
2022-10-19T16:41:10.086Z,40.10
2022-10-19T16:44:13.485Z,29.52
2022-10-19T16:47:17.611Z,16.15
2022-10-19T16:50:20.773Z,39.17
2022-10-19T16:53:23.668Z,41.93
2022-10-19T16:56:29.174Z,23.25
2022-10-19T16:59:32.162Z,45.47
2022-10-19T17:02:36.576Z,33.33
2022-10-19T17:05:40.369Z,34.08
2022-10-19T17:12:07.649Z,32.45
2022-10-19T17:15:40.845Z,40.72
2022-10-19T17:18:35.406Z,35.85
2022-10-19T17:21:40.107Z,30.33
2022-10-19T17:24:43.034Z,30.43
2022-10-19T17:27:46.406Z,32.60
2022-10-19T17:30:50.739Z,31.42
2022-10-19T17:33:54.420Z,26.67
2022-10-19T17:36:57.814Z,23.73
2022-10-19T17:40:01.441Z,22.30
2022-10-19T17:43:04.415Z,16.88
2022-10-19T17:46:09.809Z,12.68
2022-10-19T17:49:13.235Z,8.55
2022-10-19T17:52:16.228Z,10.18
2022-10-19T17:55:19.147Z,9.00
2022-10-19T17:58:22.966Z,8.55
2022-10-19T18:01:27.354Z,8.10
2022-10-19T18:04:30.401Z,13.10
2022-10-19T18:07:34.059Z,12.55
2022-10-19T18:10:38.026Z,14.00
2022-10-19T18:13:42.256Z,14.88
2022-10-19T18:16:47.442Z,14.00
2022-10-19T18:19:51.042Z,16.17
2022-10-19T18:22:55.157Z,15.13
2022-10-19T18:26:07.530Z,13.60
2022-10-19T18:29:13.894Z,10.07
2022-10-19T18:32:17.537Z,9.07
2022-10-19T18:35:21.541Z,9.07
2022-10-19T18:38:25.199Z,8.52
2022-10-19T18:41:30.683Z,8.60
2022-10-19T18:44:34.459Z,10.52
2022-10-19T18:47:38.443Z,10.75
2022-10-19T18:50:42.076Z,9.20
2022-10-19T18:53:46.459Z,9.77
2022-10-19T18:56:49.626Z,9.43
2022-10-19T18:59:53.366Z,8.95
2022-10-19T19:02:57.578Z,12.27
2022-10-19T19:06:12.958Z,10.10
2022-10-19T19:09:16.031Z,8.80
2022-10-19T19:12:19.501Z,9.13
2022-10-19T19:15:22.711Z,9.88
2022-10-19T19:18:26.773Z,9.63
2022-10-19T19:21:31.690Z,9.20
2022-10-19T19:24:35.959Z,10.43
2022-10-19T19:27:40.205Z,9.60
2022-10-19T19:30:45.736Z,9.50
2022-10-19T19:33:49.877Z,10.02
2022-10-19T19:36:53.516Z,12.38
2022-10-19T19:39:57.023Z,16.48
2022-10-19T19:43:00.574Z,16.63
2022-10-19T19:46:08.986Z,13.48
2022-10-19T19:49:12.491Z,24.50
2022-10-19T19:52:16.235Z,20.50
2022-10-19T19:55:19.209Z,20.80
2022-10-19T19:58:22.776Z,26.07
2022-10-19T20:01:27.036Z,16.63
2022-10-19T20:04:29.934Z,14.15
2022-10-19T20:07:34.012Z,13.13
2022-10-19T20:10:41.819Z,14.02
2022-10-19T20:13:46.742Z,12.63
2022-10-19T20:16:49.604Z,14.82
2022-10-19T20:19:53.484Z,16.08
2022-10-19T20:22:57.835Z,15.35
2022-10-19T20:26:01.068Z,15.10
2022-10-19T20:29:04.572Z,11.50
2022-10-19T20:32:08.162Z,12.65
2022-10-19T20:35:11.725Z,10.40
2022-10-19T20:38:15.543Z,10.05
2022-10-19T20:41:21.082Z,9.35
2022-10-19T20:44:25.043Z,9.50
2022-10-19T20:47:28.699Z,10.73
2022-10-19T20:50:32.632Z,12.50
2022-10-19T20:53:36.179Z,13.80
2022-10-19T20:56:41.967Z,13.10
2022-10-19T20:59:46.174Z,13.67
2022-10-19T21:02:50.349Z,15.82
2022-10-19T21:05:53.163Z,19.00
2022-10-19T21:08:57.128Z,14.00
2022-10-19T21:12:01.997Z,15.88
2022-10-19T21:15:06.208Z,19.07
2022-10-19T21:18:09.162Z,17.63
2022-10-19T21:21:18.145Z,18.83
2022-10-19T21:24:27.977Z,19.50
2022-10-19T21:27:31.852Z,27.85
2022-10-19T21:30:37.315Z,29.27
2022-10-19T21:33:41.540Z,26.73
2022-10-19T21:36:44.987Z,23.35
2022-10-19T21:39:48.850Z,22.77
2022-10-19T21:42:52.453Z,25.25
2022-10-19T21:45:57.042Z,28.87
2022-10-19T21:49:00.022Z,24.25
2022-10-19T21:52:03.156Z,22.20
2022-10-19T21:55:07.270Z,20.45
2022-10-19T21:58:11.227Z,20.80
2022-10-19T22:01:15.724Z,21.23
2022-10-19T22:04:19.966Z,19.95
2022-10-19T22:07:23.747Z,19.55
2022-10-19T22:10:27.836Z,19.67
2022-10-19T22:13:31.492Z,20.02
2022-10-19T22:16:37.548Z,18.27
2022-10-19T22:19:40.781Z,19.65
2022-10-19T22:22:44.645Z,20.58
2022-10-19T22:25:48.264Z,21.30
2022-10-19T22:28:51.580Z,22.48
2022-10-19T22:31:54.432Z,21.13
2022-10-19T22:34:58.687Z,28.75
2022-10-19T22:38:02.295Z,34.30
2022-10-19T22:41:06.736Z,26.60
2022-10-19T22:44:09.645Z,36.25
2022-10-19T22:47:13.138Z,22.80
2022-10-19T22:50:16.155Z,21.30
2022-10-19T22:53:20.045Z,33.00
2022-10-19T22:56:23.868Z,32.03
2022-10-19T22:59:28.025Z,26.23
2022-10-19T23:02:31.707Z,24.83
2022-10-19T23:05:35.564Z,21.13
2022-10-19T23:08:39.262Z,19.20
2022-10-19T23:11:43.241Z,16.75
2022-10-19T23:14:47.661Z,22.33
2022-10-19T23:17:51.578Z,25.57
2022-10-19T23:21:02.058Z,24.80
2022-10-19T23:24:05.981Z,18.83
2022-10-19T23:27:09.502Z,18.63
2022-10-19T23:30:13.427Z,26.20
2022-10-19T23:33:17.434Z,30.53
2022-10-19T23:36:25.624Z,29.38
2022-10-19T23:39:29.212Z,26.40
2022-10-19T23:42:33.104Z,23.55
2022-10-19T23:45:38.415Z,19.98
2022-10-19T23:48:43.095Z,23.07
2022-10-19T23:51:46.600Z,36.38
2022-10-19T23:54:49.552Z,33.90
2022-10-19T23:57:53.428Z,24.60
